createdAt,value
2023-02-11T00:01:08.330Z,0.79
2023-02-11T00:03:38.856Z,0.83
2023-02-11T00:06:10.425Z,0.91
2023-02-11T00:08:40.146Z,0.93
2023-02-11T00:11:09.634Z,0.83
2023-02-11T00:13:38.454Z,0.86
2023-02-11T00:16:10.227Z,0.91
2023-02-11T00:18:40.412Z,0.92
2023-02-11T00:21:12.998Z,0.92
2023-02-11T00:23:42.061Z,0.95
2023-02-11T00:26:14.775Z,1.00
2023-02-11T00:28:46.001Z,1.02
2023-02-11T00:31:16.345Z,0.97
2023-02-11T00:33:46.236Z,0.91
2023-02-11T00:36:20.463Z,0.95
2023-02-11T00:38:52.102Z,0.96
2023-02-11T00:41:22.614Z,1.02
2023-02-11T00:43:52.293Z,0.97
2023-02-11T00:46:21.384Z,0.99
2023-02-11T00:48:51.945Z,1.01
2023-02-11T00:51:24.842Z,1.02
2023-02-11T00:53:54.110Z,1.08
2023-02-11T00:56:23.168Z,1.15
2023-02-11T00:58:53.495Z,1.12
2023-02-11T01:01:22.517Z,1.15
2023-02-11T01:03:51.637Z,1.18
2023-02-11T01:06:20.559Z,1.18
2023-02-11T01:08:50.677Z,1.17
2023-02-11T01:11:22.045Z,1.18
2023-02-11T01:13:52.677Z,1.18
2023-02-11T01:16:22.500Z,1.19
2023-02-11T01:18:51.629Z,1.26
2023-02-11T01:21:20.599Z,1.26
2023-02-11T01:23:50.785Z,1.22
2023-02-11T01:26:19.846Z,1.20
2023-02-11T01:28:49.079Z,1.28
2023-02-11T01:31:18.220Z,1.21
2023-02-11T01:33:47.165Z,1.28
2023-02-11T01:36:15.944Z,1.25
2023-02-11T01:43:50.147Z,1.46
2023-02-11T01:46:37.082Z,1.48
2023-02-11T01:49:12.122Z,1.54
2023-02-11T01:51:48.014Z,1.58
2023-02-11T01:54:41.224Z,1.61
2023-02-11T01:57:25.291Z,1.63
2023-02-11T02:00:07.665Z,1.68
2023-02-11T02:02:54.300Z,1.66
2023-02-11T02:05:34.193Z,1.69
2023-02-11T02:08:15.742Z,1.73
2023-02-11T02:10:50.145Z,1.76
2023-02-11T02:13:18.961Z,1.77
2023-02-11T02:15:54.705Z,1.78
2023-02-11T02:18:47.768Z,1.85
2023-02-11T02:22:07.539Z,1.90
2023-02-11T02:25:20.343Z,1.93
2023-02-11T02:27:57.509Z,1.99
2023-02-11T02:31:12.309Z,1.97
2023-02-11T02:34:00.949Z,1.95
2023-02-11T02:36:42.986Z,1.98
2023-02-11T02:39:19.739Z,1.98
2023-02-11T02:41:52.162Z,1.98
2023-02-11T02:44:21.649Z,2.09
2023-02-11T02:46:50.940Z,2.14
2023-02-11T02:49:21.194Z,2.18
2023-02-11T02:52:19.661Z,2.12
2023-02-11T02:55:24.690Z,2.22
2023-02-11T02:58:15.990Z,2.29
2023-02-11T03:01:02.183Z,2.29
2023-02-11T03:03:44.469Z,2.27
2023-02-11T03:06:27.276Z,2.31
2023-02-11T03:09:04.153Z,2.37
2023-02-11T03:11:34.056Z,2.39
2023-02-11T03:14:09.242Z,2.41
2023-02-11T03:16:40.999Z,2.44
2023-02-11T03:19:16.853Z,2.46
2023-02-11T03:21:52.589Z,2.50
2023-02-11T03:24:27.335Z,2.57
2023-02-11T03:27:00.096Z,2.53
2023-02-11T03:29:38.728Z,2.54
2023-02-11T03:32:17.254Z,2.56
2023-02-11T03:34:50.983Z,2.67
2023-02-11T03:37:28.714Z,2.62
2023-02-11T03:40:04.626Z,2.68
2023-02-11T03:42:40.238Z,2.71
2023-02-11T03:45:15.226Z,2.79
2023-02-11T03:47:50.346Z,2.76
2023-02-11T03:50:22.365Z,2.74
2023-02-11T03:52:54.377Z,2.78
2023-02-11T03:55:27.885Z,2.73
2023-02-11T03:57:56.821Z,2.72
2023-02-11T04:00:32.538Z,2.78
2023-02-11T04:03:01.439Z,2.72
2023-02-11T04:05:30.434Z,2.73
2023-02-11T04:08:00.928Z,2.74
2023-02-11T04:10:29.943Z,2.85
2023-02-11T04:12:58.876Z,2.88
2023-02-11T04:15:27.997Z,2.85
2023-02-11T04:17:57.133Z,2.88
2023-02-11T04:20:26.047Z,2.89
2023-02-11T04:22:54.777Z,2.88
2023-02-11T04:25:26.004Z,2.94
2023-02-11T04:27:54.947Z,2.94
2023-02-11T04:30:24.155Z,2.96
2023-02-11T04:32:54.314Z,2.92
2023-02-11T04:35:23.300Z,2.93
2023-02-11T04:37:52.022Z,2.97
2023-02-11T04:40:29.414Z,3.01
2023-02-11T04:42:58.303Z,3.03
2023-02-11T04:45:27.209Z,2.99
2023-02-11T04:47:56.122Z,2.95
2023-02-11T04:50:24.970Z,3.04
2023-02-11T04:53:19.430Z,3.08
2023-02-11T04:55:52.587Z,3.09
2023-02-11T04:58:21.894Z,3.08
2023-02-11T05:00:50.950Z,3.09
2023-02-11T05:03:19.901Z,3.13
2023-02-11T05:05:49.306Z,3.17
2023-02-11T05:08:18.546Z,3.14
2023-02-11T05:10:48.911Z,3.17
2023-02-11T05:13:19.212Z,3.12
2023-02-11T05:15:48.332Z,3.09
2023-02-11T05:18:17.247Z,3.08
2023-02-11T05:20:46.137Z,3.12
2023-02-11T05:23:15.237Z,3.14
2023-02-11T05:25:44.092Z,3.09
2023-02-11T05:28:55.682Z,3.02
2023-02-11T05:31:24.522Z,3.05
2023-02-11T05:33:53.345Z,3.05
2023-02-11T05:36:22.158Z,3.09
2023-02-11T05:38:51.065Z,3.12
2023-02-11T05:41:20.014Z,3.07
2023-02-11T05:43:51.106Z,3.05
2023-02-11T05:46:21.576Z,3.01
2023-02-11T05:48:50.339Z,3.02
2023-02-11T05:51:19.081Z,3.08
2023-02-11T05:53:48.215Z,3.09
2023-02-11T05:56:17.197Z,3.01
2023-02-11T05:58:46.169Z,2.98
2023-02-11T06:01:30.412Z,2.98
2023-02-11T06:04:09.850Z,3.06
2023-02-11T06:06:59.819Z,3.11
2023-02-11T06:09:29.433Z,3.08
2023-02-11T06:11:59.912Z,2.98
2023-02-11T06:14:28.874Z,3.05
2023-02-11T06:17:41.537Z,3.04
2023-02-11T06:20:13.789Z,3.11
2023-02-11T06:22:42.573Z,3.12
2023-02-11T06:25:12.388Z,3.17
2023-02-11T06:27:41.568Z,3.11
2023-02-11T06:30:12.818Z,3.16
2023-02-11T06:32:45.072Z,3.20
2023-02-11T06:35:15.837Z,3.13
2023-02-11T06:37:49.748Z,3.11
2023-02-11T06:40:18.657Z,3.14
2023-02-11T06:42:47.659Z,3.14
2023-02-11T06:45:16.687Z,3.21
2023-02-11T06:47:46.880Z,3.25
2023-02-11T06:50:17.388Z,3.25
2023-02-11T06:52:46.601Z,3.19
2023-02-11T06:55:21.218Z,3.23
2023-02-11T06:57:51.430Z,3.27
2023-02-11T07:00:23.121Z,3.32
2023-02-11T07:02:53.761Z,3.19
2023-02-11T07:05:22.744Z,3.24
2023-02-11T07:07:51.742Z,3.27
2023-02-11T07:10:22.737Z,3.23
2023-02-11T07:12:51.523Z,3.19
2023-02-11T07:15:47.641Z,3.20
2023-02-11T07:18:20.691Z,3.23
2023-02-11T07:20:50.468Z,3.29
2023-02-11T07:23:19.310Z,3.31
2023-02-11T07:25:48.298Z,3.31
2023-02-11T07:28:17.512Z,3.28
2023-02-11T07:30:46.364Z,3.30
2023-02-11T07:33:45.884Z,3.28
2023-02-11T07:36:17.498Z,3.37
2023-02-11T07:38:51.612Z,3.34
2023-02-11T07:41:23.561Z,3.35
2023-02-11T07:43:57.652Z,3.40
2023-02-11T07:46:29.301Z,3.36
2023-02-11T07:49:00.874Z,3.44
2023-02-11T07:51:32.490Z,3.41
2023-02-11T07:54:03.107Z,3.45
2023-02-11T07:56:33.918Z,3.37
2023-02-11T07:59:05.369Z,3.33
2023-02-11T08:01:38.669Z,3.43
2023-02-11T08:04:09.633Z,3.46
2023-02-11T08:06:44.535Z,3.47
2023-02-11T08:09:17.928Z,3.52
2023-02-11T08:11:46.889Z,3.50
2023-02-11T08:14:16.121Z,3.59
2023-02-11T08:16:45.369Z,3.64
2023-02-11T08:19:18.270Z,3.69
2023-02-11T08:21:57.765Z,3.71
2023-02-11T08:24:26.593Z,3.65
2023-02-11T08:26:56.370Z,3.65
2023-02-11T08:29:25.808Z,3.69
2023-02-11T08:31:54.566Z,3.65
2023-02-11T08:34:24.766Z,3.73
2023-02-11T08:36:54.123Z,3.70
2023-02-11T08:39:24.903Z,3.60
2023-02-11T08:41:56.729Z,3.50
2023-02-11T08:44:26.319Z,3.55
2023-02-11T08:46:55.544Z,3.60
2023-02-11T08:49:25.884Z,3.54
2023-02-11T08:51:56.345Z,3.51
2023-02-11T08:54:26.475Z,3.59
2023-02-11T08:56:55.321Z,3.60
2023-02-11T08:59:24.815Z,3.71
2023-02-11T09:01:53.574Z,3.69
2023-02-11T09:04:22.443Z,3.70
2023-02-11T09:06:52.736Z,3.76
2023-02-11T09:09:22.312Z,3.78
2023-02-11T09:11:51.368Z,3.78
2023-02-11T09:14:23.545Z,3.83
2023-02-11T09:16:53.696Z,3.88
2023-02-11T09:19:23.205Z,3.98
2023-02-11T09:21:53.794Z,3.91
2023-02-11T09:24:22.675Z,3.96
2023-02-11T09:26:51.480Z,3.86
2023-02-11T09:29:21.358Z,3.92
2023-02-11T09:31:50.847Z,4.03
2023-02-11T09:34:20.097Z,4.04
2023-02-11T09:36:49.549Z,4.02
2023-02-11T09:39:21.546Z,3.94
2023-02-11T09:42:46.551Z,3.97
2023-02-11T09:45:21.670Z,3.98
2023-02-11T09:47:56.930Z,3.99
2023-02-11T09:50:35.295Z,4.06
2023-02-11T09:53:08.618Z,4.10
2023-02-11T09:55:43.882Z,4.06
2023-02-11T09:58:17.795Z,4.09
2023-02-11T10:00:56.552Z,4.08
2023-02-11T10:04:05.602Z,4.10
2023-02-11T10:06:45.137Z,4.13
2023-02-11T10:09:50.784Z,4.23
2023-02-11T10:12:43.944Z,4.26
2023-02-11T10:15:29.292Z,4.39
2023-02-11T10:18:19.826Z,4.45
2023-02-11T10:21:03.998Z,4.45
2023-02-11T10:23:38.963Z,4.51
2023-02-11T10:26:16.130Z,4.55
2023-02-11T10:28:50.905Z,4.49
2023-02-11T10:31:26.306Z,4.46
2023-02-11T10:34:03.188Z,4.36
2023-02-11T10:36:36.558Z,4.35
2023-02-11T10:39:17.666Z,4.45
2023-02-11T10:41:51.534Z,4.55
2023-02-11T10:44:30.884Z,4.64
2023-02-11T10:47:10.432Z,4.68
2023-02-11T10:49:42.806Z,4.78
2023-02-11T10:52:23.876Z,4.71
2023-02-11T10:55:07.209Z,4.74
2023-02-11T10:57:39.596Z,4.67
2023-02-11T11:00:36.857Z,4.74
2023-02-11T11:03:18.210Z,4.85
2023-02-11T11:05:52.763Z,4.83
2023-02-11T11:08:22.368Z,4.86
2023-02-11T11:11:04.686Z,4.84
2023-02-11T11:13:36.834Z,4.85
2023-02-11T11:16:21.708Z,4.89
2023-02-11T11:18:53.002Z,5.01
2023-02-11T11:21:25.569Z,4.96
2023-02-11T11:24:00.873Z,5.03
2023-02-11T11:26:42.803Z,5.09
2023-02-11T11:29:17.688Z,5.15
2023-02-11T11:31:57.050Z,5.13
2023-02-11T11:34:33.822Z,5.10
2023-02-11T11:37:23.401Z,5.03
2023-02-11T11:40:01.008Z,5.05
2023-02-11T11:42:36.175Z,5.07
2023-02-11T11:45:30.638Z,5.15
2023-02-11T11:48:10.455Z,5.17
2023-02-11T11:50:51.379Z,5.19
2023-02-11T11:53:34.384Z,5.21
2023-02-11T11:56:09.024Z,5.18
2023-02-11T11:59:11.808Z,5.21
2023-02-11T12:01:59.306Z,5.24
2023-02-11T12:04:59.166Z,5.23
2023-02-11T12:07:59.302Z,5.19
2023-02-11T12:11:30.719Z,5.26
2023-02-11T12:14:36.150Z,5.25
2023-02-11T12:17:21.184Z,5.21
2023-02-11T12:20:26.281Z,5.26
2023-02-11T12:23:20.062Z,5.27
2023-02-11T12:25:58.842Z,5.24
2023-02-11T12:28:42.167Z,5.29
2023-02-11T12:31:37.928Z,5.25
2023-02-11T12:34:58.176Z,5.26
2023-02-11T12:37:44.951Z,5.26
2023-02-11T12:40:23.719Z,5.35
2023-02-11T12:43:18.586Z,5.34
2023-02-11T12:46:34.674Z,5.31
2023-02-11T12:49:33.626Z,5.29
2023-02-11T12:52:45.594Z,5.25
2023-02-11T12:55:42.054Z,5.25
2023-02-11T12:58:44.830Z,5.24
2023-02-11T13:01:22.344Z,5.29
2023-02-11T13:04:01.310Z,5.22
2023-02-11T13:06:46.071Z,5.18
2023-02-11T13:09:25.361Z,5.18
2023-02-11T13:12:20.214Z,5.18
2023-02-11T13:14:53.949Z,5.19
2023-02-11T13:17:39.036Z,5.10
2023-02-11T13:21:40.746Z,5.07
2023-02-11T13:25:30.293Z,5.05
2023-02-11T13:28:16.810Z,5.05
2023-02-11T13:31:03.984Z,5.11
2023-02-11T13:33:37.048Z,5.11
2023-02-11T13:36:23.872Z,5.14
2023-02-11T13:39:02.949Z,5.17
2023-02-11T13:41:37.295Z,5.18
2023-02-11T13:44:29.512Z,5.21
2023-02-11T13:47:02.644Z,5.23
2023-02-11T13:49:41.034Z,5.24
2023-02-11T13:52:27.001Z,5.21
2023-02-11T13:55:07.789Z,5.16
2023-02-11T13:57:44.761Z,5.21
2023-02-11T14:00:50.640Z,5.30
2023-02-11T14:04:32.223Z,5.28
2023-02-11T14:07:45.566Z,5.30
2023-02-11T14:10:53.165Z,5.30
2023-02-11T14:13:27.376Z,5.30
2023-02-11T14:16:38.519Z,5.39
2023-02-11T14:19:11.411Z,5.39
2023-02-11T14:22:05.955Z,5.41
2023-02-11T14:24:57.610Z,5.31
2023-02-11T14:27:37.787Z,5.37
2023-02-11T14:30:33.996Z,5.37
2023-02-11T14:33:48.814Z,5.34
2023-02-11T14:36:59.868Z,5.34
2023-02-11T14:39:52.863Z,5.41
2023-02-11T14:42:28.956Z,5.41
2023-02-11T14:45:07.799Z,5.44
2023-02-11T14:47:47.153Z,5.38
2023-02-11T14:50:24.094Z,5.44
2023-02-11T14:52:54.821Z,5.39
2023-02-11T14:55:37.249Z,5.43
2023-02-11T14:58:18.570Z,5.36
2023-02-11T15:00:57.990Z,5.43
2023-02-11T15:03:50.763Z,5.39
2023-02-11T15:06:25.243Z,5.31
2023-02-11T15:09:02.069Z,5.31
2023-02-11T15:11:41.939Z,5.36
2023-02-11T15:14:24.349Z,5.33
2023-02-11T15:16:57.422Z,5.42
2023-02-11T15:19:35.961Z,5.29
2023-02-11T15:22:10.977Z,5.33
2023-02-11T15:24:43.343Z,5.23
2023-02-11T15:27:16.410Z,5.20
2023-02-11T15:29:52.311Z,5.28
2023-02-11T15:32:25.593Z,5.34
2023-02-11T15:35:05.149Z,5.38
2023-02-11T15:37:42.979Z,5.37
2023-02-11T15:40:16.667Z,5.35
2023-02-11T15:42:58.709Z,5.35
2023-02-11T15:45:41.736Z,5.39
2023-02-11T15:48:16.710Z,5.40
2023-02-11T15:50:54.436Z,5.37
2023-02-11T15:53:30.679Z,5.39
2023-02-11T15:56:10.158Z,5.43
2023-02-11T15:58:40.323Z,5.41
2023-02-11T16:01:15.579Z,5.36
2023-02-11T16:03:51.150Z,5.37
2023-02-11T16:06:24.361Z,5.38
2023-02-11T16:09:03.260Z,5.44
2023-02-11T16:11:35.354Z,5.34
2023-02-11T16:14:22.685Z,5.36
2023-02-11T16:16:57.689Z,5.34
2023-02-11T16:19:29.845Z,5.36
2023-02-11T16:22:03.696Z,5.38
2023-02-11T16:24:36.935Z,5.35
2023-02-11T16:27:19.809Z,5.38
2023-02-11T16:29:50.773Z,5.36
2023-02-11T16:32:24.708Z,5.35
2023-02-11T16:34:57.976Z,5.31
2023-02-11T16:37:27.926Z,5.31
2023-02-11T16:39:58.176Z,5.30
2023-02-11T16:42:27.410Z,5.31
2023-02-11T16:44:56.087Z,5.30
2023-02-11T16:47:29.961Z,5.29
2023-02-11T16:50:00.598Z,5.23
2023-02-11T16:52:31.460Z,5.28
2023-02-11T16:55:01.418Z,5.31
2023-02-11T16:57:57.996Z,5.23
2023-02-11T17:00:28.182Z,5.22
2023-02-11T17:03:00.532Z,5.20
2023-02-11T17:05:29.551Z,5.24
2023-02-11T17:07:59.138Z,5.22
2023-02-11T17:10:28.028Z,5.22
2023-02-11T17:12:57.106Z,5.18
2023-02-11T17:15:26.213Z,5.17
2023-02-11T17:17:55.275Z,5.20
2023-02-11T17:20:27.974Z,5.22
2023-02-11T17:22:57.246Z,5.22
2023-02-11T17:25:27.470Z,5.14
2023-02-11T17:27:58.219Z,5.19
2023-02-11T17:30:35.881Z,5.16
2023-02-11T17:33:36.440Z,5.24
2023-02-11T17:36:10.383Z,5.23
2023-02-11T17:38:42.059Z,5.22
2023-02-11T17:41:11.774Z,5.23
2023-02-11T17:43:43.307Z,5.20
2023-02-11T17:46:19.366Z,5.13
2023-02-11T17:48:51.781Z,5.13
2023-02-11T17:51:28.457Z,5.21
2023-02-11T17:54:02.807Z,5.19
2023-02-11T17:56:35.793Z,5.20
2023-02-11T17:59:06.156Z,5.21
2023-02-11T18:01:36.500Z,5.19
2023-02-11T18:04:07.822Z,5.19
2023-02-11T18:06:40.327Z,5.15
2023-02-11T18:09:09.705Z,5.18
2023-02-11T18:11:42.828Z,5.18
2023-02-11T18:14:12.962Z,5.16
2023-02-11T18:16:45.460Z,5.17
2023-02-11T18:19:16.075Z,5.18
2023-02-11T18:21:49.053Z,5.18
2023-02-11T18:24:18.355Z,5.17
2023-02-11T18:26:47.256Z,5.20
2023-02-11T18:29:16.036Z,5.20
2023-02-11T18:31:45.006Z,5.15
2023-02-11T18:34:14.415Z,5.15
2023-02-11T18:36:43.338Z,5.15
2023-02-11T18:39:14.317Z,5.21
2023-02-11T18:41:43.681Z,5.19
2023-02-11T18:44:14.900Z,5.16
2023-02-11T18:46:44.411Z,5.13
2023-02-11T18:49:18.284Z,5.08
2023-02-11T18:51:47.811Z,5.06
2023-02-11T18:54:18.169Z,5.06
2023-02-11T18:56:47.954Z,5.07
2023-02-11T18:59:17.031Z,5.07
2023-02-11T19:01:47.026Z,5.07
2023-02-11T19:12:35.154Z,5.00
2023-02-11T19:15:08.983Z,5.07
2023-02-11T19:17:48.267Z,5.11
2023-02-11T19:21:14.289Z,5.15
2023-02-11T19:24:12.547Z,5.18
2023-02-11T19:27:09.978Z,5.13
2023-02-11T19:29:40.370Z,5.19
2023-02-11T19:32:10.018Z,5.23
2023-02-11T19:34:42.413Z,5.25
2023-02-11T19:37:42.092Z,5.26
2023-02-11T19:40:37.597Z,5.28
2023-02-11T19:43:30.397Z,5.27
2023-02-11T19:46:50.324Z,5.36
2023-02-11T19:49:47.923Z,5.41
2023-02-11T19:52:32.007Z,5.42
2023-02-11T19:55:14.069Z,5.36
2023-02-11T19:57:44.502Z,5.37
2023-02-11T20:00:18.158Z,5.35
2023-02-11T20:02:56.816Z,5.35
2023-02-11T20:05:32.189Z,5.32
2023-02-11T20:08:13.679Z,5.31
2023-02-11T20:11:13.610Z,5.33
2023-02-11T20:14:05.757Z,5.40
2023-02-11T20:16:50.998Z,5.37
2023-02-11T20:19:48.783Z,5.31
2023-02-11T20:22:18.489Z,5.25
2023-02-11T20:24:47.472Z,5.30
2023-02-11T20:27:19.016Z,5.37
2023-02-11T20:30:18.721Z,5.41
2023-02-11T20:33:04.375Z,5.37
2023-02-11T20:35:42.958Z,5.31
2023-02-11T20:38:29.729Z,5.38
2023-02-11T20:41:05.360Z,5.32
2023-02-11T20:43:37.859Z,5.32
2023-02-11T20:46:09.096Z,5.35
2023-02-11T20:48:37.976Z,5.36
2023-02-11T20:51:12.930Z,5.36
2023-02-11T20:53:51.692Z,5.29
2023-02-11T20:56:48.086Z,5.35
2023-02-11T20:59:22.218Z,5.33
2023-02-11T21:01:55.396Z,5.37
2023-02-11T21:04:32.809Z,5.42
2023-02-11T21:07:04.689Z,5.44
2023-02-11T21:09:40.725Z,5.45
2023-02-11T21:12:23.206Z,5.48
2023-02-11T21:14:54.253Z,5.42
2023-02-11T21:17:26.344Z,5.41
2023-02-11T21:19:55.103Z,5.43
2023-02-11T21:22:25.740Z,5.42
2023-02-11T21:24:54.440Z,5.49
2023-02-11T21:27:24.118Z,5.47
2023-02-11T21:34:17.564Z,5.52
2023-02-11T21:36:44.908Z,5.54
2023-02-11T21:39:15.360Z,5.56
2023-02-11T21:41:44.137Z,5.57
2023-02-11T21:44:13.229Z,5.58
2023-02-11T21:46:42.175Z,5.58
2023-02-11T21:49:11.398Z,5.58
2023-02-11T21:51:42.540Z,5.56
2023-02-11T21:54:13.248Z,5.58
2023-02-11T21:56:42.012Z,5.56
2023-02-11T21:59:14.926Z,5.56
2023-02-11T22:01:43.673Z,5.56
2023-02-11T22:04:12.470Z,5.52
2023-02-11T22:06:42.842Z,5.55
2023-02-11T22:09:12.310Z,5.54
2023-02-11T22:11:41.045Z,5.60
2023-02-11T22:14:10.028Z,5.55
2023-02-11T22:16:38.883Z,5.51
2023-02-11T22:19:07.799Z,5.51
2023-02-11T22:21:36.647Z,5.48
2023-02-11T22:24:24.100Z,5.50
2023-02-11T22:26:53.000Z,5.49
2023-02-11T22:29:21.820Z,5.46
2023-02-11T22:31:50.558Z,5.47
2023-02-11T22:34:33.671Z,5.58
2023-02-11T22:37:02.475Z,5.63
2023-02-11T22:39:32.525Z,5.57
2023-02-11T22:42:01.546Z,5.61
2023-02-11T22:44:30.445Z,5.60
2023-02-11T22:46:59.167Z,5.57
2023-02-11T22:49:39.600Z,5.58
2023-02-11T22:52:08.400Z,5.62
2023-02-11T22:54:39.012Z,5.52
2023-02-11T22:57:07.721Z,5.55
2023-02-11T22:59:36.480Z,5.54
2023-02-11T23:02:05.464Z,5.58
2023-02-11T23:04:34.202Z,5.60
2023-02-11T23:07:02.886Z,5.57
2023-02-11T23:09:31.610Z,5.56
2023-02-11T23:12:01.722Z,5.63
2023-02-11T23:14:30.508Z,5.65
2023-02-11T23:16:59.323Z,5.56
2023-02-11T23:19:28.160Z,5.56
2023-02-11T23:21:56.825Z,5.52
2023-02-11T23:24:25.586Z,5.52
2023-02-11T23:26:54.263Z,5.51
2023-02-11T23:29:30.385Z,5.55
2023-02-11T23:31:59.303Z,5.60
2023-02-11T23:34:27.996Z,5.63
2023-02-11T23:36:59.247Z,5.59
2023-02-11T23:39:27.961Z,5.61
2023-02-11T23:41:59.083Z,5.63
2023-02-11T23:44:28.044Z,5.65
2023-02-11T23:46:58.390Z,5.63
2023-02-11T23:49:27.294Z,5.65
2023-02-11T23:51:55.971Z,5.62
2023-02-11T23:54:24.971Z,5.65
2023-02-11T23:56:53.617Z,5.60
2023-02-11T23:59:22.272Z,5.55
